sensor_id;sensor_type;location;lat;lon;timestamp;P1;durP1;ratioP1;P2;durP2;ratioP2
81591;SDS011;71014;53.394;6.724;2023-08-01T00:01:29;7.75;;;3.30;;
81591;SDS011;71014;53.394;6.724;2023-08-01T00:06:21;6.68;;;2.65;;
81591;SDS011;71014;53.394;6.724;2023-08-01T00:08:47;13.02;;;3.33;;
81591;SDS011;71014;53.394;6.724;2023-08-01T00:11:13;9.18;;;3.45;;
81591;SDS011;71014;53.394;6.724;2023-08-01T00:13:41;7.63;;;2.85;;
81591;SDS011;71014;53.394;6.724;2023-08-01T00:16:08;9.38;;;3.10;;
81591;SDS011;71014;53.394;6.724;2023-08-01T00:18:34;7.68;;;3.35;;
81591;SDS011;71014;53.394;6.724;2023-08-01T00:21:00;8.60;;;3.55;;
81591;SDS011;71014;53.394;6.724;2023-08-01T00:23:26;13.35;;;3.28;;
81591;SDS011;71014;53.394;6.724;2023-08-01T00:25:52;8.57;;;2.63;;
81591;SDS011;71014;53.394;6.724;2023-08-01T00:28:18;15.20;;;4.20;;
81591;SDS011;71014;53.394;6.724;2023-08-01T00:30:44;6.97;;;2.83;;
81591;SDS011;71014;53.394;6.724;2023-08-01T00:33:10;12.43;;;3.65;;
81591;SDS011;71014;53.394;6.724;2023-08-01T00:35:36;7.20;;;3.72;;
81591;SDS011;71014;53.394;6.724;2023-08-01T00:38:02;16.90;;;4.70;;
81591;SDS011;71014;53.394;6.724;2023-08-01T00:40:32;11.55;;;3.72;;
81591;SDS011;71014;53.394;6.724;2023-08-01T00:42:58;7.75;;;3.67;;
81591;SDS011;71014;53.394;6.724;2023-08-01T00:45:24;12.07;;;4.07;;
81591;SDS011;71014;53.394;6.724;2023-08-01T00:47:51;9.15;;;3.97;;
81591;SDS011;71014;53.394;6.724;2023-08-01T00:50:17;9.15;;;3.80;;
81591;SDS011;71014;53.394;6.724;2023-08-01T00:52:47;9.82;;;4.63;;
81591;SDS011;71014;53.394;6.724;2023-08-01T00:55:14;11.35;;;4.72;;
81591;SDS011;71014;53.394;6.724;2023-08-01T00:57:40;10.32;;;4.60;;
81591;SDS011;71014;53.394;6.724;2023-08-01T01:00:06;8.40;;;3.78;;
81591;SDS011;71014;53.394;6.724;2023-08-01T01:02:32;12.18;;;3.75;;
81591;SDS011;71014;53.394;6.724;2023-08-01T01:04:59;10.55;;;3.95;;
81591;SDS011;71014;53.394;6.724;2023-08-01T01:07:25;9.25;;;3.75;;
81591;SDS011;71014;53.394;6.724;2023-08-01T01:09:51;5.78;;;3.50;;
81591;SDS011;71014;53.394;6.724;2023-08-01T01:12:17;7.55;;;4.10;;
81591;SDS011;71014;53.394;6.724;2023-08-01T01:14:43;8.95;;;3.47;;
81591;SDS011;71014;53.394;6.724;2023-08-01T01:17:09;6.93;;;3.50;;
81591;SDS011;71014;53.394;6.724;2023-08-01T01:19:35;8.52;;;3.85;;
81591;SDS011;71014;53.394;6.724;2023-08-01T01:22:02;15.63;;;3.97;;
81591;SDS011;71014;53.394;6.724;2023-08-01T01:24:29;6.85;;;3.42;;
81591;SDS011;71014;53.394;6.724;2023-08-01T01:29:24;8.90;;;3.47;;
81591;SDS011;71014;53.394;6.724;2023-08-01T01:31:50;6.53;;;3.95;;
81591;SDS011;71014;53.394;6.724;2023-08-01T01:34:18;5.65;;;3.40;;
81591;SDS011;71014;53.394;6.724;2023-08-01T01:36:44;6.63;;;3.30;;
81591;SDS011;71014;53.394;6.724;2023-08-01T01:39:10;10.90;;;3.88;;
81591;SDS011;71014;53.394;6.724;2023-08-01T01:41:36;8.27;;;3.55;;
81591;SDS011;71014;53.394;6.724;2023-08-01T01:44:02;8.40;;;4.00;;
81591;SDS011;71014;53.394;6.724;2023-08-01T01:46:28;6.40;;;3.42;;
81591;SDS011;71014;53.394;6.724;2023-08-01T01:48:54;8.95;;;4.13;;
81591;SDS011;71014;53.394;6.724;2023-08-01T01:51:24;10.73;;;3.92;;
81591;SDS011;71014;53.394;6.724;2023-08-01T01:53:50;8.80;;;3.47;;
81591;SDS011;71014;53.394;6.724;2023-08-01T01:56:16;9.13;;;3.63;;
81591;SDS011;71014;53.394;6.724;2023-08-01T01:58:42;9.68;;;3.88;;
81591;SDS011;71014;53.394;6.724;2023-08-01T02:01:08;6.57;;;3.80;;
81591;SDS011;71014;53.394;6.724;2023-08-01T02:03:34;7.80;;;3.20;;
81591;SDS011;71014;53.394;6.724;2023-08-01T02:06:01;11.23;;;3.67;;
81591;SDS011;71014;53.394;6.724;2023-08-01T02:08:31;8.32;;;3.40;;
81591;SDS011;71014;53.394;6.724;2023-08-01T02:10:57;9.13;;;3.30;;
81591;SDS011;71014;53.394;6.724;2023-08-01T02:13:26;10.80;;;3.65;;
81591;SDS011;71014;53.394;6.724;2023-08-01T02:15:52;7.00;;;3.45;;
81591;SDS011;71014;53.394;6.724;2023-08-01T02:18:19;8.68;;;3.50;;
81591;SDS011;71014;53.394;6.724;2023-08-01T02:20:45;7.35;;;3.22;;
81591;SDS011;71014;53.394;6.724;2023-08-01T02:23:11;11.45;;;3.42;;
81591;SDS011;71014;53.394;6.724;2023-08-01T02:25:40;9.70;;;3.80;;
81591;SDS011;71014;53.394;6.724;2023-08-01T02:28:06;6.68;;;3.47;;
81591;SDS011;71014;53.394;6.724;2023-08-01T02:30:32;6.90;;;3.47;;
81591;SDS011;71014;53.394;6.724;2023-08-01T02:32:58;9.20;;;3.00;;
81591;SDS011;71014;53.394;6.724;2023-08-01T02:35:25;9.80;;;3.50;;
81591;SDS011;71014;53.394;6.724;2023-08-01T02:37:51;7.53;;;3.88;;
81591;SDS011;71014;53.394;6.724;2023-08-01T02:40:17;11.00;;;3.38;;
81591;SDS011;71014;53.394;6.724;2023-08-01T02:42:43;6.97;;;3.03;;
81591;SDS011;71014;53.394;6.724;2023-08-01T02:45:09;7.10;;;3.30;;
81591;SDS011;71014;53.394;6.724;2023-08-01T02:47:35;7.30;;;3.08;;
81591;SDS011;71014;53.394;6.724;2023-08-01T02:50:01;10.35;;;3.63;;
81591;SDS011;71014;53.394;6.724;2023-08-01T02:52:27;5.68;;;3.55;;
81591;SDS011;71014;53.394;6.724;2023-08-01T02:54:53;8.30;;;3.13;;
81591;SDS011;71014;53.394;6.724;2023-08-01T02:57:19;6.68;;;3.63;;
81591;SDS011;71014;53.394;6.724;2023-08-01T02:59:45;8.20;;;3.40;;
81591;SDS011;71014;53.394;6.724;2023-08-01T03:02:12;8.77;;;3.28;;
81591;SDS011;71014;53.394;6.724;2023-08-01T03:04:38;6.78;;;3.20;;
81591;SDS011;71014;53.394;6.724;2023-08-01T03:07:04;12.20;;;3.53;;
81591;SDS011;71014;53.394;6.724;2023-08-01T03:09:31;11.70;;;4.85;;
81591;SDS011;71014;53.394;6.724;2023-08-01T03:11:57;7.88;;;3.70;;
81591;SDS011;71014;53.394;6.724;2023-08-01T03:14:23;9.48;;;3.88;;
81591;SDS011;71014;53.394;6.724;2023-08-01T03:16:49;8.93;;;4.15;;
81591;SDS011;71014;53.394;6.724;2023-08-01T03:19:15;8.90;;;4.07;;
81591;SDS011;71014;53.394;6.724;2023-08-01T03:21:41;6.45;;;2.67;;
81591;SDS011;71014;53.394;6.724;2023-08-01T03:24:07;7.18;;;3.10;;
81591;SDS011;71014;53.394;6.724;2023-08-01T03:26:36;6.93;;;3.90;;
81591;SDS011;71014;53.394;6.724;2023-08-01T03:29:02;7.70;;;3.78;;
81591;SDS011;71014;53.394;6.724;2023-08-01T03:31:30;7.60;;;3.67;;
81591;SDS011;71014;53.394;6.724;2023-08-01T03:33:56;9.43;;;3.75;;
81591;SDS011;71014;53.394;6.724;2023-08-01T03:36:25;8.15;;;3.60;;
81591;SDS011;71014;53.394;6.724;2023-08-01T03:38:51;8.43;;;3.53;;
81591;SDS011;71014;53.394;6.724;2023-08-01T03:41:17;6.70;;;3.38;;
81591;SDS011;71014;53.394;6.724;2023-08-01T03:43:43;9.27;;;3.50;;
81591;SDS011;71014;53.394;6.724;2023-08-01T03:46:09;7.63;;;3.83;;
81591;SDS011;71014;53.394;6.724;2023-08-01T03:48:35;9.80;;;4.65;;
81591;SDS011;71014;53.394;6.724;2023-08-01T03:51:01;8.00;;;3.55;;
81591;SDS011;71014;53.394;6.724;2023-08-01T03:53:29;9.75;;;4.05;;
81591;SDS011;71014;53.394;6.724;2023-08-01T03:55:55;10.15;;;3.33;;
81591;SDS011;71014;53.394;6.724;2023-08-01T03:58:21;5.88;;;3.70;;
81591;SDS011;71014;53.394;6.724;2023-08-01T04:00:47;7.38;;;3.25;;
81591;SDS011;71014;53.394;6.724;2023-08-01T04:03:13;7.82;;;4.45;;
81591;SDS011;71014;53.394;6.724;2023-08-01T04:05:39;9.68;;;4.20;;
81591;SDS011;71014;53.394;6.724;2023-08-01T04:08:05;6.85;;;3.65;;
81591;SDS011;71014;53.394;6.724;2023-08-01T04:10:31;10.23;;;3.15;;
81591;SDS011;71014;53.394;6.724;2023-08-01T04:12:57;7.60;;;4.05;;
81591;SDS011;71014;53.394;6.724;2023-08-01T04:15:23;11.30;;;4.00;;
81591;SDS011;71014;53.394;6.724;2023-08-01T04:17:49;7.20;;;4.30;;
81591;SDS011;71014;53.394;6.724;2023-08-01T04:20:15;6.57;;;3.50;;
81591;SDS011;71014;53.394;6.724;2023-08-01T04:22:41;9.52;;;3.75;;
81591;SDS011;71014;53.394;6.724;2023-08-01T04:25:07;8.43;;;3.53;;
81591;SDS011;71014;53.394;6.724;2023-08-01T04:27:33;8.10;;;3.47;;
81591;SDS011;71014;53.394;6.724;2023-08-01T04:30:00;6.53;;;3.63;;
81591;SDS011;71014;53.394;6.724;2023-08-01T04:32:26;7.78;;;3.33;;
81591;SDS011;71014;53.394;6.724;2023-08-01T04:34:52;7.00;;;3.20;;
81591;SDS011;71014;53.394;6.724;2023-08-01T04:37:18;8.35;;;4.10;;
81591;SDS011;71014;53.394;6.724;2023-08-01T04:39:47;9.60;;;3.65;;
81591;SDS011;71014;53.394;6.724;2023-08-01T04:42:13;6.15;;;2.85;;
81591;SDS011;71014;53.394;6.724;2023-08-01T04:44:39;8.75;;;4.15;;
81591;SDS011;71014;53.394;6.724;2023-08-01T04:47:05;8.93;;;3.75;;
81591;SDS011;71014;53.394;6.724;2023-08-01T04:49:31;10.10;;;3.55;;
81591;SDS011;71014;53.394;6.724;2023-08-01T04:51:57;10.95;;;2.85;;
81591;SDS011;71014;53.394;6.724;2023-08-01T04:54:23;6.25;;;2.80;;
81591;SDS011;71014;53.394;6.724;2023-08-01T04:56:49;5.65;;;2.85;;
81591;SDS011;71014;53.394;6.724;2023-08-01T04:59:15;5.75;;;2.42;;
81591;SDS011;71014;53.394;6.724;2023-08-01T05:01:41;9.07;;;3.47;;
81591;SDS011;71014;53.394;6.724;2023-08-01T05:04:07;6.88;;;2.17;;
81591;SDS011;71014;53.394;6.724;2023-08-01T05:06:33;6.47;;;2.28;;
81591;SDS011;71014;53.394;6.724;2023-08-01T05:09:00;4.85;;;2.05;;
81591;SDS011;71014;53.394;6.724;2023-08-01T05:11:26;6.57;;;1.95;;
81591;SDS011;71014;53.394;6.724;2023-08-01T05:13:52;5.13;;;2.00;;
81591;SDS011;71014;53.394;6.724;2023-08-01T05:16:18;5.13;;;2.10;;
81591;SDS011;71014;53.394;6.724;2023-08-01T05:18:44;6.63;;;1.95;;
81591;SDS011;71014;53.394;6.724;2023-08-01T05:21:10;7.38;;;2.38;;
81591;SDS011;71014;53.394;6.724;2023-08-01T05:23:36;4.50;;;1.50;;
81591;SDS011;71014;53.394;6.724;2023-08-01T05:26:02;6.68;;;2.20;;
81591;SDS011;71014;53.394;6.724;2023-08-01T05:28:28;4.35;;;1.70;;
81591;SDS011;71014;53.394;6.724;2023-08-01T05:30:53;4.40;;;1.63;;
81591;SDS011;71014;53.394;6.724;2023-08-01T05:33:19;3.70;;;1.70;;
81591;SDS011;71014;53.394;6.724;2023-08-01T05:35:46;6.00;;;1.85;;
81591;SDS011;71014;53.394;6.724;2023-08-01T05:38:12;4.70;;;3.30;;
81591;SDS011;71014;53.394;6.724;2023-08-01T05:40:38;6.50;;;1.55;;
81591;SDS011;71014;53.394;6.724;2023-08-01T05:43:04;4.25;;;1.30;;
81591;SDS011;71014;53.394;6.724;2023-08-01T05:45:33;6.40;;;1.75;;
81591;SDS011;71014;53.394;6.724;2023-08-01T05:47:59;4.78;;;1.50;;
81591;SDS011;71014;53.394;6.724;2023-08-01T05:50:25;6.35;;;1.88;;
81591;SDS011;71014;53.394;6.724;2023-08-01T05:52:51;7.72;;;1.60;;
81591;SDS011;71014;53.394;6.724;2023-08-01T05:55:17;4.70;;;1.45;;
81591;SDS011;71014;53.394;6.724;2023-08-01T05:57:43;3.50;;;1.40;;
81591;SDS011;71014;53.394;6.724;2023-08-01T06:00:09;5.15;;;1.38;;
81591;SDS011;71014;53.394;6.724;2023-08-01T06:02:35;4.00;;;1.20;;
81591;SDS011;71014;53.394;6.724;2023-08-01T06:07:28;2.20;;;1.02;;
81591;SDS011;71014;53.394;6.724;2023-08-01T06:09:54;5.53;;;1.25;;
81591;SDS011;71014;53.394;6.724;2023-08-01T06:12:20;3.83;;;1.10;;
81591;SDS011;71014;53.394;6.724;2023-08-01T06:14:47;4.65;;;1.40;;
81591;SDS011;71014;53.394;6.724;2023-08-01T06:17:15;5.78;;;1.33;;
81591;SDS011;71014;53.394;6.724;2023-08-01T06:19:41;3.38;;;1.25;;
81591;SDS011;71014;53.394;6.724;2023-08-01T06:22:08;5.75;;;1.90;;
81591;SDS011;71014;53.394;6.724;2023-08-01T06:24:34;3.58;;;1.67;;
81591;SDS011;71014;53.394;6.724;2023-08-01T06:27:00;7.60;;;1.83;;
81591;SDS011;71014;53.394;6.724;2023-08-01T06:29:26;3.97;;;1.40;;
81591;SDS011;71014;53.394;6.724;2023-08-01T06:31:52;3.60;;;1.63;;
81591;SDS011;71014;53.394;6.724;2023-08-01T06:34:18;3.28;;;1.17;;
81591;SDS011;71014;53.394;6.724;2023-08-01T06:36:44;2.92;;;1.27;;
81591;SDS011;71014;53.394;6.724;2023-08-01T06:39:10;2.42;;;0.88;;
81591;SDS011;71014;53.394;6.724;2023-08-01T06:41:36;3.80;;;1.30;;
81591;SDS011;71014;53.394;6.724;2023-08-01T06:44:02;2.45;;;1.38;;
81591;SDS011;71014;53.394;6.724;2023-08-01T06:46:28;2.58;;;1.10;;
81591;SDS011;71014;53.394;6.724;2023-08-01T06:48:54;3.95;;;1.48;;
81591;SDS011;71014;53.394;6.724;2023-08-01T06:51:20;3.35;;;1.30;;
81591;SDS011;71014;53.394;6.724;2023-08-01T06:53:46;2.83;;;1.45;;
81591;SDS011;71014;53.394;6.724;2023-08-01T06:56:12;1.88;;;1.02;;
81591;SDS011;71014;53.394;6.724;2023-08-01T06:58:38;1.98;;;1.38;;
81591;SDS011;71014;53.394;6.724;2023-08-01T07:01:04;2.45;;;1.10;;
81591;SDS011;71014;53.394;6.724;2023-08-01T07:03:30;3.25;;;1.73;;
81591;SDS011;71014;53.394;6.724;2023-08-01T07:05:56;2.22;;;0.90;;
81591;SDS011;71014;53.394;6.724;2023-08-01T07:08:23;2.00;;;1.10;;
81591;SDS011;71014;53.394;6.724;2023-08-01T07:10:49;2.75;;;1.10;;
81591;SDS011;71014;53.394;6.724;2023-08-01T07:13:15;2.35;;;0.80;;
81591;SDS011;71014;53.394;6.724;2023-08-01T07:15:41;3.55;;;0.70;;
81591;SDS011;71014;53.394;6.724;2023-08-01T07:18:08;1.80;;;0.60;;
81591;SDS011;71014;53.394;6.724;2023-08-01T07:20:33;3.25;;;0.77;;
81591;SDS011;71014;53.394;6.724;2023-08-01T07:22:59;2.72;;;0.80;;
81591;SDS011;71014;53.394;6.724;2023-08-01T07:25:26;1.50;;;0.73;;
81591;SDS011;71014;53.394;6.724;2023-08-01T07:27:52;2.17;;;0.90;;
81591;SDS011;71014;53.394;6.724;2023-08-01T07:30:18;4.38;;;1.05;;
81591;SDS011;71014;53.394;6.724;2023-08-01T07:32:44;1.92;;;0.88;;
81591;SDS011;71014;53.394;6.724;2023-08-01T07:35:10;2.35;;;1.10;;
81591;SDS011;71014;53.394;6.724;2023-08-01T07:37:36;2.58;;;0.70;;
81591;SDS011;71014;53.394;6.724;2023-08-01T07:40:04;4.70;;;1.13;;
81591;SDS011;71014;53.394;6.724;2023-08-01T07:42:30;2.70;;;1.05;;
81591;SDS011;71014;53.394;6.724;2023-08-01T07:44:56;2.83;;;0.70;;
81591;SDS011;71014;53.394;6.724;2023-08-01T07:47:22;3.45;;;0.90;;
81591;SDS011;71014;53.394;6.724;2023-08-01T07:49:49;2.28;;;0.82;;
81591;SDS011;71014;53.394;6.724;2023-08-01T07:52:15;1.45;;;0.52;;
81591;SDS011;71014;53.394;6.724;2023-08-01T07:54:41;2.00;;;0.90;;
81591;SDS011;71014;53.394;6.724;2023-08-01T07:57:07;3.65;;;0.77;;
81591;SDS011;71014;53.394;6.724;2023-08-01T07:59:33;1.23;;;0.70;;
81591;SDS011;71014;53.394;6.724;2023-08-01T08:01:59;1.40;;;0.70;;
81591;SDS011;71014;53.394;6.724;2023-08-01T08:04:25;5.53;;;0.77;;
81591;SDS011;71014;53.394;6.724;2023-08-01T08:06:51;2.72;;;0.57;;
81591;SDS011;71014;53.394;6.724;2023-08-01T08:09:17;2.00;;;0.80;;
81591;SDS011;71014;53.394;6.724;2023-08-01T08:11:43;1.33;;;0.60;;
81591;SDS011;71014;53.394;6.724;2023-08-01T08:14:09;2.65;;;0.80;;
81591;SDS011;71014;53.394;6.724;2023-08-01T08:16:36;2.38;;;0.80;;
81591;SDS011;71014;53.394;6.724;2023-08-01T08:19:02;2.88;;;0.93;;
81591;SDS011;71014;53.394;6.724;2023-08-01T08:21:28;2.42;;;0.75;;
81591;SDS011;71014;53.394;6.724;2023-08-01T08:23:54;3.65;;;1.10;;
81591;SDS011;71014;53.394;6.724;2023-08-01T08:26:21;1.10;;;0.55;;
81591;SDS011;71014;53.394;6.724;2023-08-01T08:28:47;2.20;;;0.60;;
81591;SDS011;71014;53.394;6.724;2023-08-01T08:31:13;2.97;;;1.27;;
81591;SDS011;71014;53.394;6.724;2023-08-01T08:33:39;3.13;;;0.70;;
81591;SDS011;71014;53.394;6.724;2023-08-01T08:36:05;1.42;;;0.82;;
81591;SDS011;71014;53.394;6.724;2023-08-01T08:38:31;2.88;;;1.00;;
81591;SDS011;71014;53.394;6.724;2023-08-01T08:43:23;3.10;;;1.00;;
81591;SDS011;71014;53.394;6.724;2023-08-01T08:45:49;3.17;;;0.90;;
81591;SDS011;71014;53.394;6.724;2023-08-01T08:48:17;1.50;;;0.80;;
81591;SDS011;71014;53.394;6.724;2023-08-01T08:50:45;1.60;;;0.90;;
81591;SDS011;71014;53.394;6.724;2023-08-01T08:53:11;1.20;;;0.82;;
81591;SDS011;71014;53.394;6.724;2023-08-01T08:55:41;1.25;;;1.02;;
81591;SDS011;71014;53.394;6.724;2023-08-01T08:58:07;2.80;;;0.82;;
81591;SDS011;71014;53.394;6.724;2023-08-01T09:02:59;5.43;;;1.50;;
81591;SDS011;71014;53.394;6.724;2023-08-01T09:05:26;5.57;;;1.70;;
81591;SDS011;71014;53.394;6.724;2023-08-01T09:07:54;2.42;;;1.23;;
81591;SDS011;71014;53.394;6.724;2023-08-01T09:10:22;2.22;;;0.80;;
81591;SDS011;71014;53.394;6.724;2023-08-01T09:12:48;0.85;;;0.52;;
81591;SDS011;71014;53.394;6.724;2023-08-01T09:15:14;1.60;;;0.63;;
81591;SDS011;71014;53.394;6.724;2023-08-01T09:17:47;2.17;;;0.77;;
81591;SDS011;71014;53.394;6.724;2023-08-01T09:20:14;2.40;;;0.60;;
81591;SDS011;71014;53.394;6.724;2023-08-01T09:22:43;3.17;;;0.95;;
81591;SDS011;71014;53.394;6.724;2023-08-01T09:25:10;2.35;;;0.60;;
81591;SDS011;71014;53.394;6.724;2023-08-01T09:27:36;1.90;;;0.80;;
81591;SDS011;71014;53.394;6.724;2023-08-01T09:30:20;2.70;;;0.77;;
81591;SDS011;71014;53.394;6.724;2023-08-01T09:32:53;0.82;;;0.60;;
81591;SDS011;71014;53.394;6.724;2023-08-01T09:35:19;2.22;;;0.85;;
81591;SDS011;71014;53.394;6.724;2023-08-01T09:37:46;2.03;;;0.85;;
81591;SDS011;71014;53.394;6.724;2023-08-01T09:40:13;1.63;;;0.45;;
81591;SDS011;71014;53.394;6.724;2023-08-01T09:45:15;2.22;;;0.95;;
81591;SDS011;71014;53.394;6.724;2023-08-01T09:47:41;1.55;;;0.88;;
81591;SDS011;71014;53.394;6.724;2023-08-01T09:50:11;1.40;;;0.93;;
81591;SDS011;71014;53.394;6.724;2023-08-01T09:52:38;2.65;;;1.08;;
81591;SDS011;71014;53.394;6.724;2023-08-01T09:55:04;3.45;;;1.00;;
81591;SDS011;71014;53.394;6.724;2023-08-01T09:57:31;8.40;;;1.17;;
81591;SDS011;71014;53.394;6.724;2023-08-01T10:02:26;3.40;;;1.00;;
81591;SDS011;71014;53.394;6.724;2023-08-01T10:04:54;2.10;;;1.08;;
81591;SDS011;71014;53.394;6.724;2023-08-01T10:07:26;4.45;;;1.70;;
81591;SDS011;71014;53.394;6.724;2023-08-01T10:09:54;4.82;;;1.20;;
81591;SDS011;71014;53.394;6.724;2023-08-01T10:12:24;2.83;;;0.93;;
81591;SDS011;71014;53.394;6.724;2023-08-01T10:14:51;4.07;;;0.95;;
81591;SDS011;71014;53.394;6.724;2023-08-01T10:17:17;3.85;;;1.50;;
81591;SDS011;71014;53.394;6.724;2023-08-01T10:19:44;4.22;;;1.00;;
81591;SDS011;71014;53.394;6.724;2023-08-01T10:22:10;8.65;;;1.70;;
81591;SDS011;71014;53.394;6.724;2023-08-01T10:24:36;4.28;;;1.00;;
81591;SDS011;71014;53.394;6.724;2023-08-01T10:27:19;3.20;;;1.13;;
81591;SDS011;71014;53.394;6.724;2023-08-01T10:29:45;5.03;;;1.33;;
81591;SDS011;71014;53.394;6.724;2023-08-01T10:32:27;5.13;;;1.38;;
81591;SDS011;71014;53.394;6.724;2023-08-01T10:34:53;5.90;;;1.30;;
81591;SDS011;71014;53.394;6.724;2023-08-01T10:37:19;4.57;;;1.05;;
81591;SDS011;71014;53.394;6.724;2023-08-01T10:39:45;5.65;;;2.13;;
81591;SDS011;71014;53.394;6.724;2023-08-01T10:42:21;2.50;;;1.02;;
81591;SDS011;71014;53.394;6.724;2023-08-01T10:44:47;1.00;;;0.80;;
81591;SDS011;71014;53.394;6.724;2023-08-01T10:47:13;2.63;;;0.80;;
81591;SDS011;71014;53.394;6.724;2023-08-01T10:49:40;3.78;;;1.35;;
81591;SDS011;71014;53.394;6.724;2023-08-01T10:52:20;4.15;;;0.95;;
81591;SDS011;71014;53.394;6.724;2023-08-01T10:54:55;4.72;;;1.30;;
81591;SDS011;71014;53.394;6.724;2023-08-01T10:57:21;1.38;;;0.80;;
81591;SDS011;71014;53.394;6.724;2023-08-01T10:59:47;4.32;;;1.20;;
81591;SDS011;71014;53.394;6.724;2023-08-01T11:02:19;4.63;;;1.35;;
81591;SDS011;71014;53.394;6.724;2023-08-01T11:04:54;7.10;;;1.30;;
81591;SDS011;71014;53.394;6.724;2023-08-01T11:07:20;4.22;;;1.40;;
81591;SDS011;71014;53.394;6.724;2023-08-01T11:09:46;7.32;;;1.80;;
81591;SDS011;71014;53.394;6.724;2023-08-01T11:12:12;3.58;;;1.40;;
81591;SDS011;71014;53.394;6.724;2023-08-01T11:14:38;5.32;;;1.98;;
81591;SDS011;71014;53.394;6.724;2023-08-01T11:17:04;5.03;;;1.30;;
81591;SDS011;71014;53.394;6.724;2023-08-01T11:19:30;3.45;;;1.00;;
81591;SDS011;71014;53.394;6.724;2023-08-01T11:21:57;3.15;;;1.20;;
81591;SDS011;71014;53.394;6.724;2023-08-01T11:24:24;6.80;;;1.23;;
81591;SDS011;71014;53.394;6.724;2023-08-01T11:26:51;2.17;;;1.13;;
81591;SDS011;71014;53.394;6.724;2023-08-01T11:29:18;6.38;;;1.10;;
81591;SDS011;71014;53.394;6.724;2023-08-01T11:31:51;6.28;;;1.15;;
81591;SDS011;71014;53.394;6.724;2023-08-01T11:34:18;6.15;;;1.05;;
81591;SDS011;71014;53.394;6.724;2023-08-01T11:36:44;4.25;;;0.93;;
81591;SDS011;71014;53.394;6.724;2023-08-01T11:39:11;9.57;;;1.20;;
81591;SDS011;71014;53.394;6.724;2023-08-01T11:41:37;3.40;;;0.95;;
81591;SDS011;71014;53.394;6.724;2023-08-01T11:44:04;3.85;;;1.20;;
81591;SDS011;71014;53.394;6.724;2023-08-01T11:46:31;7.63;;;1.77;;
81591;SDS011;71014;53.394;6.724;2023-08-01T11:48:58;4.13;;;0.75;;
81591;SDS011;71014;53.394;6.724;2023-08-01T11:51:25;3.08;;;0.80;;
81591;SDS011;71014;53.394;6.724;2023-08-01T11:54:01;2.55;;;0.88;;
81591;SDS011;71014;53.394;6.724;2023-08-01T11:56:27;2.38;;;0.95;;
81591;SDS011;71014;53.394;6.724;2023-08-01T11:58:53;3.55;;;1.35;;
81591;SDS011;71014;53.394;6.724;2023-08-01T12:01:19;5.75;;;1.27;;
81591;SDS011;71014;53.394;6.724;2023-08-01T12:06:12;4.97;;;1.27;;
81591;SDS011;71014;53.394;6.724;2023-08-01T12:08:39;4.03;;;1.02;;
81591;SDS011;71014;53.394;6.724;2023-08-01T12:11:05;6.43;;;1.10;;
81591;SDS011;71014;53.394;6.724;2023-08-01T12:13:31;4.50;;;0.90;;
81591;SDS011;71014;53.394;6.724;2023-08-01T12:15:57;4.45;;;1.02;;
81591;SDS011;71014;53.394;6.724;2023-08-01T12:18:24;3.67;;;0.95;;
81591;SDS011;71014;53.394;6.724;2023-08-01T12:20:50;5.18;;;1.48;;
81591;SDS011;71014;53.394;6.724;2023-08-01T12:23:16;5.50;;;1.23;;
81591;SDS011;71014;53.394;6.724;2023-08-01T12:25:42;1.92;;;0.82;;
81591;SDS011;71014;53.394;6.724;2023-08-01T12:28:08;2.88;;;0.77;;
81591;SDS011;71014;53.394;6.724;2023-08-01T12:30:34;3.80;;;0.82;;
81591;SDS011;71014;53.394;6.724;2023-08-01T12:33:02;4.20;;;0.70;;
81591;SDS011;71014;53.394;6.724;2023-08-01T12:35:28;5.25;;;0.98;;
81591;SDS011;71014;53.394;6.724;2023-08-01T12:37:54;3.15;;;0.80;;
81591;SDS011;71014;53.394;6.724;2023-08-01T12:40:20;3.85;;;1.30;;
81591;SDS011;71014;53.394;6.724;2023-08-01T12:45:12;4.18;;;0.77;;
81591;SDS011;71014;53.394;6.724;2023-08-01T12:47:38;4.53;;;0.90;;
81591;SDS011;71014;53.394;6.724;2023-08-01T12:50:05;7.32;;;1.25;;
81591;SDS011;71014;53.394;6.724;2023-08-01T12:54:57;5.68;;;1.42;;
81591;SDS011;71014;53.394;6.724;2023-08-01T12:57:23;2.55;;;1.00;;
81591;SDS011;71014;53.394;6.724;2023-08-01T12:59:49;2.83;;;1.13;;
81591;SDS011;71014;53.394;6.724;2023-08-01T13:02:15;2.53;;;1.00;;
81591;SDS011;71014;53.394;6.724;2023-08-01T13:04:41;4.57;;;1.08;;
81591;SDS011;71014;53.394;6.724;2023-08-01T13:07:07;5.20;;;1.20;;
81591;SDS011;71014;53.394;6.724;2023-08-01T13:09:33;4.53;;;1.20;;
81591;SDS011;71014;53.394;6.724;2023-08-01T13:11:59;4.32;;;1.40;;
81591;SDS011;71014;53.394;6.724;2023-08-01T13:14:25;2.42;;;1.13;;
81591;SDS011;71014;53.394;6.724;2023-08-01T13:16:52;3.42;;;0.85;;
81591;SDS011;71014;53.394;6.724;2023-08-01T13:19:18;4.70;;;1.02;;
81591;SDS011;71014;53.394;6.724;2023-08-01T13:24:10;4.93;;;1.30;;
81591;SDS011;71014;53.394;6.724;2023-08-01T13:26:36;3.55;;;1.33;;
81591;SDS011;71014;53.394;6.724;2023-08-01T13:29:02;5.45;;;0.93;;
81591;SDS011;71014;53.394;6.724;2023-08-01T13:31:28;2.78;;;1.00;;
81591;SDS011;71014;53.394;6.724;2023-08-01T13:33:57;3.97;;;0.95;;
81591;SDS011;71014;53.394;6.724;2023-08-01T13:36:23;2.08;;;0.65;;
81591;SDS011;71014;53.394;6.724;2023-08-01T13:38:50;3.08;;;1.08;;
81591;SDS011;71014;53.394;6.724;2023-08-01T13:43:42;4.78;;;1.33;;
81591;SDS011;71014;53.394;6.724;2023-08-01T13:46:15;5.10;;;1.17;;
81591;SDS011;71014;53.394;6.724;2023-08-01T13:48:41;2.97;;;1.13;;
81591;SDS011;71014;53.394;6.724;2023-08-01T13:51:07;1.95;;;0.90;;
81591;SDS011;71014;53.394;6.724;2023-08-01T13:53:33;5.82;;;1.17;;
81591;SDS011;71014;53.394;6.724;2023-08-01T13:56:04;1.90;;;0.77;;
81591;SDS011;71014;53.394;6.724;2023-08-01T13:58:30;2.67;;;0.60;;
81591;SDS011;71014;53.394;6.724;2023-08-01T14:01:00;1.35;;;0.52;;
81591;SDS011;71014;53.394;6.724;2023-08-01T14:03:27;2.28;;;0.60;;
81591;SDS011;71014;53.394;6.724;2023-08-01T14:05:52;0.30;;;0.28;;
81591;SDS011;71014;53.394;6.724;2023-08-01T14:08:19;4.63;;;0.70;;
81591;SDS011;71014;53.394;6.724;2023-08-01T14:10:45;3.03;;;0.75;;
81591;SDS011;71014;53.394;6.724;2023-08-01T14:13:11;3.22;;;0.73;;
81591;SDS011;71014;53.394;6.724;2023-08-01T14:15:37;3.40;;;0.43;;
81591;SDS011;71014;53.394;6.724;2023-08-01T14:18:03;1.60;;;0.70;;
81591;SDS011;71014;53.394;6.724;2023-08-01T14:20:29;2.10;;;0.70;;
81591;SDS011;71014;53.394;6.724;2023-08-01T14:22:55;3.67;;;1.05;;
81591;SDS011;71014;53.394;6.724;2023-08-01T14:25:21;3.28;;;0.70;;
81591;SDS011;71014;53.394;6.724;2023-08-01T14:27:47;2.00;;;0.60;;
81591;SDS011;71014;53.394;6.724;2023-08-01T14:30:13;2.83;;;0.70;;
81591;SDS011;71014;53.394;6.724;2023-08-01T14:35:05;2.22;;;0.63;;
81591;SDS011;71014;53.394;6.724;2023-08-01T14:37:31;3.67;;;0.77;;
81591;SDS011;71014;53.394;6.724;2023-08-01T14:39:57;3.70;;;0.80;;
81591;SDS011;71014;53.394;6.724;2023-08-01T14:42:23;2.83;;;0.60;;
81591;SDS011;71014;53.394;6.724;2023-08-01T14:44:53;3.22;;;1.00;;
81591;SDS011;71014;53.394;6.724;2023-08-01T14:47:19;3.75;;;0.98;;
81591;SDS011;71014;53.394;6.724;2023-08-01T14:52:11;2.92;;;0.50;;
81591;SDS011;71014;53.394;6.724;2023-08-01T14:54:37;3.30;;;0.90;;
81591;SDS011;71014;53.394;6.724;2023-08-01T14:57:03;2.72;;;0.90;;
81591;SDS011;71014;53.394;6.724;2023-08-01T14:59:29;5.32;;;1.00;;
81591;SDS011;71014;53.394;6.724;2023-08-01T15:01:55;3.63;;;0.82;;
81591;SDS011;71014;53.394;6.724;2023-08-01T15:04:21;2.28;;;0.60;;
81591;SDS011;71014;53.394;6.724;2023-08-01T15:06:47;2.42;;;0.95;;
81591;SDS011;71014;53.394;6.724;2023-08-01T15:09:14;2.53;;;0.73;;
81591;SDS011;71014;53.394;6.724;2023-08-01T15:11:40;2.47;;;0.80;;
81591;SDS011;71014;53.394;6.724;2023-08-01T15:14:07;3.80;;;0.68;;
81591;SDS011;71014;53.394;6.724;2023-08-01T15:16:33;2.47;;;1.10;;